createdAt,value
2022-12-25T00:00:23.409Z,6.93
2022-12-25T00:04:47.561Z,7.01
2022-12-25T00:08:51.168Z,7.11
2022-12-25T00:12:55.329Z,7.12
2022-12-25T00:16:58.940Z,7.12
2022-12-25T00:21:02.895Z,7.15
2022-12-25T00:25:08.084Z,7.19
2022-12-25T00:29:11.714Z,7.21
2022-12-25T00:33:17.299Z,7.25
2022-12-25T00:37:21.370Z,7.26
2022-12-25T00:41:26.030Z,7.23
2022-12-25T00:45:30.200Z,7.21
2022-12-25T00:49:34.348Z,7.19
2022-12-25T00:52:39.831Z,7.11
2022-12-25T00:56:43.266Z,7.08
2022-12-25T01:00:47.866Z,7.02
2022-12-25T01:04:52.422Z,6.93
2022-12-25T01:08:48.790Z,6.90
2022-12-25T01:12:54.458Z,6.84
2022-12-25T01:17:08.265Z,6.76
2022-12-25T01:21:04.915Z,6.69
2022-12-25T01:25:08.557Z,6.72
2022-12-25T01:29:12.141Z,6.69
2022-12-25T01:33:08.723Z,6.69
2022-12-25T01:37:15.637Z,6.64
2022-12-25T01:41:19.237Z,6.64
2022-12-25T01:45:38.376Z,6.61
2022-12-25T01:49:48.389Z,6.58
2022-12-25T01:53:52.407Z,6.55
2022-12-25T01:57:49.889Z,6.48
2022-12-25T02:01:53.641Z,6.43
2022-12-25T02:06:09.182Z,6.45
2022-12-25T02:10:11.280Z,6.38
2022-12-25T02:13:50.011Z,6.34
2022-12-25T02:17:46.913Z,6.41
2022-12-25T02:21:52.088Z,6.39
2022-12-25T02:26:01.347Z,6.38
2022-12-25T02:30:13.766Z,6.41
2022-12-25T02:34:23.971Z,6.43
2022-12-25T02:38:30.837Z,6.43
2022-12-25T02:42:40.659Z,6.43
2022-12-25T02:46:40.467Z,6.41
2022-12-25T02:50:43.430Z,6.35
2022-12-25T02:54:46.740Z,6.30
2022-12-25T02:58:40.375Z,6.25
2022-12-25T03:02:26.037Z,6.29
2022-12-25T03:06:28.419Z,6.29
2022-12-25T03:10:36.248Z,6.24
2022-12-25T03:14:45.718Z,6.21
2022-12-25T03:18:55.259Z,6.20
2022-12-25T03:23:06.404Z,6.09
2022-12-25T03:27:16.889Z,6.02
2022-12-25T03:31:08.375Z,5.98
2022-12-25T03:35:24.194Z,5.92
2022-12-25T03:39:36.751Z,5.89
2022-12-25T03:43:38.609Z,5.86
2022-12-25T03:47:57.755Z,5.83
2022-12-25T03:52:00.207Z,5.77
2022-12-25T03:56:13.745Z,5.72
2022-12-25T04:00:12.537Z,5.69
2022-12-25T04:04:14.488Z,5.71
2022-12-25T04:08:17.314Z,5.73
2022-12-25T04:12:19.952Z,5.68
2022-12-25T04:16:22.929Z,5.67
2022-12-25T04:20:35.822Z,5.66
2022-12-25T04:24:13.370Z,5.66
2022-12-25T04:28:04.067Z,5.68
2022-12-25T04:31:39.374Z,5.64
2022-12-25T04:35:41.786Z,5.68
2022-12-25T04:39:47.023Z,5.73
2022-12-25T04:43:39.325Z,5.70
2022-12-25T04:47:42.919Z,5.70
2022-12-25T04:51:52.699Z,5.62
2022-12-25T04:55:50.969Z,5.59
2022-12-25T04:59:53.375Z,5.59
2022-12-25T05:03:57.184Z,5.60
2022-12-25T05:07:58.306Z,5.63
2022-12-25T05:12:06.361Z,5.69
2022-12-25T05:16:10.834Z,5.68
2022-12-25T05:20:14.490Z,5.69
2022-12-25T05:24:08.760Z,5.67
2022-12-25T05:28:12.317Z,5.65
2022-12-25T05:32:16.134Z,5.65
2022-12-25T05:36:05.017Z,5.64
2022-12-25T05:40:08.131Z,5.69
2022-12-25T05:43:24.187Z,5.66
2022-12-25T05:47:27.763Z,5.60
2022-12-25T05:50:51.650Z,5.54
2022-12-25T05:54:54.423Z,5.55
2022-12-25T05:58:58.374Z,5.60
2022-12-25T06:03:02.149Z,5.64
2022-12-25T06:07:04.721Z,5.69
2022-12-25T06:11:04.945Z,5.72
2022-12-25T06:15:08.991Z,5.71
2022-12-25T06:19:14.211Z,5.65
2022-12-25T06:23:03.683Z,5.58
2022-12-25T06:26:57.677Z,5.59
2022-12-25T06:30:07.199Z,5.65
2022-12-25T06:33:20.645Z,5.67
2022-12-25T06:37:24.342Z,5.67
2022-12-25T06:41:22.896Z,5.67
2022-12-25T06:45:26.732Z,5.64
2022-12-25T06:49:31.362Z,5.62
2022-12-25T06:53:29.366Z,5.64
2022-12-25T06:57:36.253Z,5.73
2022-12-25T07:01:39.986Z,5.72
2022-12-25T07:05:42.913Z,5.72
2022-12-25T07:09:30.814Z,5.71
2022-12-25T07:13:33.169Z,5.77
2022-12-25T07:17:25.597Z,5.92
2022-12-25T07:21:36.554Z,5.94
2022-12-25T07:25:40.305Z,5.85
2022-12-25T07:29:44.515Z,5.80
2022-12-25T07:33:18.036Z,5.80
2022-12-25T07:36:54.585Z,5.84
2022-12-25T07:40:59.332Z,5.83
2022-12-25T07:45:02.943Z,5.76
2022-12-25T07:48:52.269Z,5.83
2022-12-25T07:52:56.053Z,5.85
2022-12-25T07:56:48.883Z,5.81
2022-12-25T08:00:52.799Z,5.75
2022-12-25T08:04:59.780Z,5.69
2022-12-25T08:09:02.475Z,5.74
2022-12-25T08:13:12.434Z,5.71
2022-12-25T08:17:23.893Z,5.71
2022-12-25T08:21:27.610Z,5.72
2022-12-25T08:25:31.226Z,5.74
2022-12-25T08:29:34.948Z,5.76
2022-12-25T08:33:56.076Z,5.69
2022-12-25T08:37:43.681Z,5.72
2022-12-25T08:41:51.524Z,5.71
2022-12-25T08:45:45.205Z,5.64
2022-12-25T08:49:42.200Z,5.62
2022-12-25T08:53:45.676Z,5.63
2022-12-25T08:57:27.746Z,5.66
2022-12-25T09:01:31.619Z,5.63
2022-12-25T09:05:23.935Z,5.64
2022-12-25T09:09:06.795Z,5.75
2022-12-25T09:13:10.404Z,5.78
2022-12-25T09:17:01.266Z,5.76
2022-12-25T09:20:37.716Z,5.77
2022-12-25T09:24:40.735Z,5.78
2022-12-25T09:28:35.362Z,5.82
2022-12-25T09:32:29.158Z,5.78
2022-12-25T09:36:26.488Z,5.75
2022-12-25T09:40:17.031Z,5.78
2022-12-25T09:43:58.710Z,5.76
2022-12-25T09:48:01.333Z,5.78
2022-12-25T09:51:50.296Z,5.77
2022-12-25T09:55:41.672Z,5.81
2022-12-25T09:59:45.270Z,5.83
2022-12-25T10:03:52.226Z,5.85
2022-12-25T10:07:57.332Z,5.93
2022-12-25T10:12:05.716Z,6.03
2022-12-25T10:16:14.937Z,6.10
2022-12-25T10:20:36.910Z,6.14
2022-12-25T10:24:41.324Z,6.25
2022-12-25T10:28:36.976Z,6.37
2022-12-25T10:32:33.186Z,6.46
2022-12-25T10:35:45.724Z,6.57
2022-12-25T10:39:46.375Z,6.65
2022-12-25T10:43:00.240Z,6.78
2022-12-25T10:47:00.724Z,6.83
2022-12-25T10:51:07.780Z,6.92
2022-12-25T10:55:29.352Z,7.03
2022-12-25T10:59:33.383Z,7.19
2022-12-25T11:03:37.526Z,7.30
2022-12-25T11:07:53.704Z,7.34
2022-12-25T11:11:57.797Z,7.52
2022-12-25T11:16:04.297Z,7.73
2022-12-25T11:20:20.142Z,7.92
2022-12-25T11:24:03.262Z,8.09
2022-12-25T11:28:07.395Z,8.24
2022-12-25T11:32:11.135Z,8.33
2022-12-25T11:36:11.041Z,8.39
2022-12-25T11:40:23.839Z,8.44
2022-12-25T11:44:28.095Z,8.53
2022-12-25T11:48:32.138Z,8.55
2022-12-25T11:52:21.973Z,8.56
2022-12-25T11:55:49.610Z,8.56
2022-12-25T11:59:53.213Z,8.52
2022-12-25T12:03:35.844Z,8.42
2022-12-25T12:08:04.916Z,8.36
2022-12-25T12:11:52.840Z,8.24
2022-12-25T12:16:06.070Z,8.15
2022-12-25T12:20:07.651Z,8.02
2022-12-25T12:23:39.946Z,7.98
2022-12-25T12:27:41.097Z,7.93
2022-12-25T12:31:35.436Z,7.90
2022-12-25T12:35:54.551Z,7.89
2022-12-25T12:39:51.618Z,7.85
2022-12-25T12:43:47.109Z,7.86
2022-12-25T12:47:50.686Z,7.83
2022-12-25T12:52:09.976Z,7.76
2022-12-25T12:56:12.894Z,7.68
2022-12-25T13:00:17.232Z,7.67
2022-12-25T13:04:39.574Z,7.69
2022-12-25T13:08:49.287Z,7.65
2022-12-25T13:12:37.689Z,7.64
2022-12-25T13:16:41.832Z,7.62
2022-12-25T13:20:57.191Z,7.57
2022-12-25T13:24:49.460Z,7.49
2022-12-25T13:28:54.731Z,7.46
2022-12-25T13:32:57.895Z,7.41
2022-12-25T13:36:54.607Z,7.44
2022-12-25T13:41:04.096Z,7.45
2022-12-25T13:45:07.715Z,7.39
2022-12-25T13:49:11.349Z,7.39
2022-12-25T13:53:10.770Z,7.41
2022-12-25T13:57:12.142Z,7.41
2022-12-25T14:01:19.026Z,7.37
2022-12-25T14:05:22.705Z,7.38
2022-12-25T14:09:26.724Z,7.36
2022-12-25T14:13:30.409Z,7.34
2022-12-25T14:17:34.109Z,7.30
2022-12-25T14:21:40.524Z,7.27
2022-12-25T14:25:49.320Z,7.29
2022-12-25T14:29:54.521Z,7.29
2022-12-25T14:33:58.711Z,7.23
2022-12-25T14:38:00.040Z,7.25
2022-12-25T14:41:55.541Z,7.29
2022-12-25T14:46:14.031Z,7.28
2022-12-25T14:50:19.161Z,7.25
2022-12-25T14:54:28.621Z,7.23
2022-12-25T14:58:42.549Z,7.24
2022-12-25T15:02:38.962Z,7.25
2022-12-25T15:06:58.164Z,7.22
2022-12-25T15:11:01.189Z,7.20
2022-12-25T15:15:14.363Z,7.24
2022-12-25T15:18:45.649Z,7.25
2022-12-25T15:22:47.693Z,7.25
2022-12-25T15:27:06.658Z,7.23
2022-12-25T15:30:56.849Z,7.24
2022-12-25T15:34:50.287Z,7.25
2022-12-25T15:38:27.975Z,7.25
2022-12-25T15:42:33.191Z,7.25
2022-12-25T15:46:36.703Z,7.26
2022-12-25T15:50:06.111Z,7.31
2022-12-25T15:53:55.772Z,7.31
2022-12-25T15:58:02.194Z,7.29
2022-12-25T16:02:07.477Z,7.25
2022-12-25T16:06:11.121Z,7.24
2022-12-25T16:10:11.488Z,7.21
2022-12-25T16:14:08.034Z,7.19
2022-12-25T16:18:14.746Z,7.23
2022-12-25T16:22:14.790Z,7.22
2022-12-25T16:26:18.394Z,7.22
2022-12-25T16:30:14.585Z,7.28
2022-12-25T16:34:00.466Z,7.25
2022-12-25T16:38:05.805Z,7.20
2022-12-25T16:42:01.491Z,7.21
2022-12-25T16:45:43.419Z,7.20
2022-12-25T16:49:46.986Z,7.24
2022-12-25T16:53:15.014Z,7.21
2022-12-25T16:56:51.926Z,7.21
2022-12-25T17:00:19.632Z,7.21
2022-12-25T17:04:02.202Z,7.18
2022-12-25T17:07:51.287Z,7.14
2022-12-25T17:11:30.460Z,7.12
2022-12-25T17:15:01.795Z,7.14
2022-12-25T17:18:35.023Z,7.16
2022-12-25T17:21:59.815Z,7.16
2022-12-25T17:25:42.021Z,7.17
2022-12-25T17:30:15.419Z,7.19
2022-12-25T17:33:58.689Z,7.17
2022-12-25T17:37:20.563Z,7.10
2022-12-25T17:40:56.952Z,7.06
2022-12-25T17:44:57.738Z,7.03
2022-12-25T17:48:32.439Z,7.04
2022-12-25T17:52:02.904Z,7.03
2022-12-25T17:55:38.255Z,7.03
2022-12-25T17:59:00.587Z,7.06
2022-12-25T18:02:47.152Z,7.08
2022-12-25T18:06:35.846Z,7.07
2022-12-25T18:10:14.965Z,7.05
2022-12-25T18:13:44.817Z,7.08
2022-12-25T18:17:42.453Z,7.10
2022-12-25T18:21:08.036Z,7.10
2022-12-25T18:25:02.506Z,7.10
2022-12-25T18:28:17.515Z,7.09
2022-12-25T18:31:55.813Z,7.08
2022-12-25T18:35:31.129Z,7.04
2022-12-25T18:39:08.875Z,7.00
2022-12-25T18:43:05.468Z,6.98
2022-12-25T18:46:48.626Z,6.95
2022-12-25T18:50:42.121Z,6.90
2022-12-25T18:54:28.629Z,6.88
2022-12-25T18:57:41.014Z,6.89
2022-12-25T19:01:51.262Z,6.92
2022-12-25T19:05:57.854Z,6.85
2022-12-25T19:10:18.334Z,6.87
2022-12-25T19:13:52.469Z,6.88
2022-12-25T19:17:40.179Z,6.89
2022-12-25T19:21:06.489Z,6.89
2022-12-25T19:24:52.859Z,6.87
2022-12-25T19:28:27.885Z,6.88
2022-12-25T19:32:24.176Z,6.89
2022-12-25T19:36:08.828Z,6.86
2022-12-25T19:40:08.047Z,6.87
2022-12-25T19:43:55.060Z,6.89
2022-12-25T19:47:37.612Z,6.89
2022-12-25T19:51:35.973Z,6.85
2022-12-25T19:55:22.657Z,6.85
2022-12-25T19:59:10.333Z,6.88
2022-12-25T20:03:03.405Z,6.88
2022-12-25T20:06:38.906Z,6.86
2022-12-25T20:10:34.641Z,6.87
2022-12-25T20:14:10.557Z,6.90
2022-12-25T20:17:38.582Z,6.88
2022-12-25T20:21:26.928Z,6.85
2022-12-25T20:25:13.912Z,6.81
2022-12-25T20:28:28.522Z,6.81
2022-12-25T20:32:17.717Z,6.79
2022-12-25T20:36:01.209Z,6.77
2022-12-25T20:39:42.347Z,6.76
2022-12-25T20:43:45.880Z,6.80
2022-12-25T20:47:22.988Z,6.84
2022-12-25T20:51:18.003Z,6.81
2022-12-25T20:55:20.792Z,6.81
2022-12-25T20:58:57.220Z,6.84
2022-12-25T21:03:00.982Z,6.86
2022-12-25T21:06:42.883Z,6.83
2022-12-25T21:10:16.021Z,6.82
2022-12-25T21:14:08.355Z,6.83
2022-12-25T21:18:05.406Z,6.84
2022-12-25T21:21:47.114Z,6.80
2022-12-25T21:25:20.926Z,6.80
2022-12-25T21:29:00.900Z,6.84
2022-12-25T21:32:37.969Z,6.82
2022-12-25T21:36:38.298Z,6.79
2022-12-25T21:40:34.741Z,6.76
2022-12-25T21:44:23.713Z,6.81
2022-12-25T21:47:59.960Z,6.84
2022-12-25T21:52:14.809Z,6.85
2022-12-25T21:55:39.628Z,6.84
2022-12-25T21:59:37.027Z,6.86
2022-12-25T22:03:23.871Z,6.87
2022-12-25T22:07:02.752Z,6.82
2022-12-25T22:10:40.909Z,6.79
2022-12-25T22:14:17.420Z,6.86
2022-12-25T22:18:10.970Z,6.89
2022-12-25T22:22:18.070Z,6.88
2022-12-25T22:26:21.221Z,6.90
2022-12-25T22:30:12.536Z,6.93
2022-12-25T22:34:14.119Z,6.91
2022-12-25T22:38:09.016Z,6.88
2022-12-25T22:42:05.146Z,6.84
2022-12-25T22:45:54.406Z,6.84
2022-12-25T22:49:42.889Z,6.78
2022-12-25T22:53:38.851Z,6.85
2022-12-25T22:57:42.464Z,6.90
2022-12-25T23:01:38.761Z,6.93
2022-12-25T23:05:43.670Z,6.92
2022-12-25T23:09:04.012Z,6.98
2022-12-25T23:12:47.954Z,7.03
2022-12-25T23:16:43.994Z,7.06
2022-12-25T23:20:46.594Z,7.03
2022-12-25T23:24:33.135Z,7.03
2022-12-25T23:28:19.411Z,7.07
2022-12-25T23:32:17.665Z,7.12
2022-12-25T23:36:13.614Z,7.14
2022-12-25T23:40:16.934Z,7.19
2022-12-25T23:44:19.165Z,7.24
2022-12-25T23:47:43.088Z,7.24
2022-12-25T23:51:45.343Z,7.24
2022-12-25T23:55:55.093Z,7.28
2022-12-25T23:59:59.824Z,7.32
